| time (UTC) | temp C | wind direction | speed KPH | gust KPH | rain 1hr cm | rain 24hr cm | rain mn cm | humidity % | barometer mb |
| 20260507174003 | 13 | 247 | 1.6 | 9.7 | 0.00 | 0.28 | 0.28 | 80 | 999.2 |
| 20260507173004 | 12 | 266 | 3.2 | 11.3 | 0.00 | 0.28 | 0.28 | 84 | 998.8 |
| 20260507172003 | 12 | 227 | 3.2 | 12.9 | 0.03 | 0.28 | 0.28 | 92 | 999.2 |
| 20260507171003 | 11 | 253 | 1.6 | 9.7 | 0.03 | 0.28 | 0.28 | 91 | 999.5 |
| 20260507170004 | 11 | 282 | 3.2 | 9.7 | 0.03 | 0.28 | 0.28 | 93 | 999.5 |
| 20260507165004 | 11 | 287 | 1.6 | 6.4 | 0.03 | 0.28 | 0.28 | 95 | 999.8 |
| 20260507164004 | 10 | 262 | 1.6 | 6.4 | 0.03 | 0.28 | 0.28 | 96 | 999.5 |
| 20260507163003 | 10 | 219 | 1.6 | 4.8 | 0.03 | 0.28 | 0.28 | 96 | 999.5 |
| 20260507162003 | 10 | 273 | 1.6 | 6.4 | 0.00 | 0.25 | 0.25 | 96 | 999.8 |
| 20260507161004 | 10 | 275 | 1.6 | 9.7 | 0.00 | 0.25 | 0.25 | 95 | 999.8 |
| 20260507160004 | 10 | 264 | 1.6 | 9.7 | 0.00 | 0.25 | 0.25 | 96 | 999.8 |
| 20260507155003 | 10 | 256 | 1.6 | 6.4 | 0.00 | 0.25 | 0.25 | 96 | 1000.2 |
| 20260507154004 | 10 | 261 | 1.6 | 6.4 | 0.00 | 0.25 | 0.25 | 96 | 999.5 |
| 20260507153003 | 10 | 277 | 1.6 | 9.7 | 0.00 | 0.25 | 0.25 | 95 | 1000.5 |
| 20260507152003 | 10 | 270 | 1.6 | 9.7 | 0.00 | 0.25 | 0.25 | 95 | 1000.9 |
| 20260507151003 | 10 | 264 | 1.6 | 4.8 | 0.00 | 0.25 | 0.25 | 95 | 1000.9 |
| 20260507150004 | 10 | 282 | 1.6 | 4.8 | 0.00 | 0.25 | 0.25 | 95 | 1000.2 |
| 20260507145003 | 10 | 255 | 1.6 | 4.8 | 0.00 | 0.25 | 0.25 | 96 | 1000.5 |
| 20260507144003 | 10 | 264 | 1.6 | 6.4 | 0.00 | 0.25 | 0.25 | 96 | 1000.9 |
| 20260507143004 | 10 | 211 | 0.0 | 4.8 | 0.03 | 0.25 | 0.25 | 96 | 1000.9 |
| 20260507142004 | 10 | 177 | 0.0 | 4.8 | 0.05 | 0.25 | 0.25 | 96 | 1000.2 |
| 20260507141004 | 10 | 181 | 1.6 | 4.8 | 0.08 | 0.25 | 0.25 | 96 | 1000.9 |
| 20260507140003 | 10 | 205 | 0.0 | 1.6 | 0.08 | 0.25 | 0.25 | 96 | 1000.9 |
| 20260507135003 | 10 | 203 | 1.6 | 4.8 | 0.08 | 0.25 | 0.25 | 95 | 1000.2 |
| 20260507134003 | 11 | 206 | 0.0 | 4.8 | 0.08 | 0.25 | 0.25 | 95 | 1000.2 |
| 20260507133003 | 11 | 206 | 1.6 | 6.4 | 0.05 | 0.23 | 0.23 | 94 | 1000.9 |
| 20260507132003 | 11 | 249 | 1.6 | 12.9 | 0.03 | 0.20 | 0.20 | 92 | 1001.2 |
| 20260507131003 | 11 | 192 | 1.6 | 3.2 | 0.00 | 0.18 | 0.18 | 90 | 1000.9 |
| 20260507130004 | 11 | 202 | 1.6 | 6.4 | 0.00 | 0.18 | 0.18 | 89 | 1000.9 |
| 20260507125004 | 11 | 204 | 3.2 | 11.3 | 0.00 | 0.18 | 0.18 | 88 | 1000.9 |
| 20260507124003 | 11 | 184 | 3.2 | 9.7 | 0.00 | 0.18 | 0.18 | 88 | 1001.2 |
| 20260507123004 | 11 | 202 | 3.2 | 11.3 | 0.00 | 0.18 | 0.18 | 89 | 1000.9 |
| 20260507122004 | 11 | 192 | 3.2 | 9.7 | 0.00 | 0.18 | 0.18 | 89 | 1000.5 |
| 20260507121004 | 11 | 203 | 3.2 | 11.3 | 0.00 | 0.18 | 0.18 | 90 | 1000.5 |
| 20260507120004 | 11 | 194 | 3.2 | 9.7 | 0.00 | 0.18 | 0.18 | 91 | 1000.5 |
| 20260507115003 | 11 | 190 | 4.8 | 12.9 | 0.00 | 0.18 | 0.18 | 92 | 1000.2 |
| 20260507114004 | 11 | 208 | 4.8 | 22.5 | 0.00 | 0.18 | 0.18 | 91 | 1000.9 |
| 20260507113004 | 11 | 199 | 1.6 | 11.3 | 0.03 | 0.18 | 0.18 | 94 | 1000.9 |
| 20260507112004 | 11 | 183 | 1.6 | 6.4 | 0.05 | 0.18 | 0.18 | 95 | 1000.9 |
| 20260507111004 | 11 | 175 | 1.6 | 6.4 | 0.05 | 0.18 | 0.18 | 94 | 999.8 |
| 20260507110004 | 11 | 172 | 1.6 | 6.4 | 0.05 | 0.18 | 0.18 | 96 | 999.8 |
| 20260507105003 | 11 | 192 | 1.6 | 6.4 | 0.05 | 0.18 | 0.18 | 95 | 999.8 |
| 20260507104004 | 11 | 170 | 1.6 | 3.2 | 0.05 | 0.18 | 0.18 | 95 | 999.8 |
| 20260507103003 | 11 | 185 | 3.2 | 12.9 | 0.03 | 0.15 | 0.15 | 94 | 1000.2 |
| 20260507102003 | 11 | 167 | 4.8 | 9.7 | 0.00 | 0.13 | 0.13 | 91 | 1000.2 |
| 20260507101003 | 12 | 191 | 3.2 | 14.5 | 0.00 | 0.13 | 0.13 | 91 | 1000.5 |
| 20260507100004 | 12 | 184 | 4.8 | 12.9 | 0.00 | 0.13 | 0.13 | 91 | 1000.2 |
| 20260507095003 | 12 | 222 | 4.8 | 20.9 | 0.00 | 0.13 | 0.13 | 92 | 1000.2 |
| 20260507094004 | 12 | 201 | 3.2 | 12.9 | 0.00 | 0.13 | 0.13 | 93 | 1000.2 |
| 20260507093003 | 12 | 188 | 3.2 | 16.1 | 0.00 | 0.13 | 0.13 | 96 | 999.8 |
| 20260507092003 | 12 | 179 | 3.2 | 9.7 | 0.00 | 0.13 | 0.13 | 98 | 999.8 |
| 20260507091003 | 12 | 171 | 3.2 | 6.4 | 0.03 | 0.13 | 0.13 | 98 | 999.8 |
| 20260507090004 | 12 | 162 | 0.0 | 3.2 | 0.03 | 0.13 | 0.13 | 98 | 999.8 |
| 20260507085003 | 12 | 189 | 1.6 | 4.8 | 0.03 | 0.13 | 0.13 | 98 | 999.8 |
| 20260507084003 | 12 | 166 | 1.6 | 3.2 | 0.03 | 0.13 | 0.13 | 98 | 999.8 |
| 20260507083004 | 12 | 162 | 1.6 | 6.4 | 0.03 | 0.13 | 0.13 | 97 | 999.8 |
| 20260507082003 | 12 | 169 | 1.6 | 4.8 | 0.03 | 0.13 | 0.13 | 97 | 999.8 |
| 20260507081003 | 12 | 169 | 3.2 | 9.7 | 0.03 | 0.10 | 0.10 | 97 | 999.8 |
| 20260507080004 | 12 | 169 | 3.2 | 9.7 | 0.03 | 0.10 | 0.10 | 97 | 1000.2 |
| 20260507075004 | 12 | 161 | 3.2 | 9.7 | 0.03 | 0.10 | 0.10 | 96 | 1000.2 |
| 20260507074003 | 12 | 158 | 3.2 | 16.1 | 0.03 | 0.10 | 0.10 | 96 | 1000.5 |
| 20260507073004 | 12 | 154 | 3.2 | 6.4 | 0.03 | 0.10 | 0.10 | 96 | 1000.9 |
| 20260507072003 | 12 | 165 | 3.2 | 14.5 | 0.05 | 0.10 | 0.10 | 97 | 1001.2 |
| 20260507071003 | 12 | 166 | 3.2 | 6.4 | 0.03 | 0.08 | 0.08 | 96 | 1001.5 |
| 20260507070007 | 12 | 160 | 3.2 | 12.9 | 0.03 | 0.08 | 0.08 | 96 | 1001.9 |
| 20260507065004 | 12 | 171 | 3.2 | 9.7 | 0.03 | 0.08 | 0.08 | 95 | 1001.9 |
| 20260507064003 | 13 | 175 | 3.2 | 12.9 | 0.03 | 0.08 | 0.08 | 95 | 1001.9 |
| 20260507063003 | 13 | 169 | 3.2 | 12.9 | 0.03 | 0.08 | 0.08 | 95 | 1001.9 |
| 20260507062003 | 13 | 171 | 3.2 | 14.5 | 0.00 | 0.05 | 0.05 | 94 | 1002.2 |
| 20260507061004 | 13 | 183 | 3.2 | 6.4 | 0.03 | 0.05 | 0.05 | 94 | 1002.6 |
| 20260507060004 | 12 | 165 | 3.2 | 11.3 | 0.03 | 0.05 | 0.05 | 94 | 1002.9 |
| 20260507055003 | 12 | 168 | 3.2 | 9.7 | 0.05 | 0.05 | 0.05 | 94 | 1003.2 |
| 20260507054004 | 13 | 157 | 1.6 | 9.7 | 0.05 | 0.05 | 0.05 | 94 | 1003.6 |
| 20260507053004 | 13 | 164 | 1.6 | 6.4 | 0.05 | 0.05 | 0.05 | 94 | 1003.6 |
| 20260507052003 | 13 | 172 | 3.2 | 11.3 | 0.05 | 0.05 | 0.05 | 92 | 1003.9 |
| 20260507051003 | 13 | 164 | 3.2 | 9.7 | 0.03 | 0.03 | 0.03 | 91 | 1004.6 |
| 20260507050004 | 13 | 159 | 3.2 | 9.7 | 0.03 | 0.03 | 0.03 | 89 | 1004.3 |
| 20260507045003 | 14 | 160 | 1.6 | 11.3 | 0.00 | 0.00 | 0.00 | 86 | 1004.9 |
| 20260507044004 | 14 | 171 | 1.6 | 4.8 | 0.00 | 0.00 | 0.00 | 83 | 1005.3 |
| 20260507043003 | 15 | 181 | 3.2 | 14.5 | 0.00 | 0.00 | 0.00 | 82 | 1005.3 |
| 20260507042003 | 15 | 172 | 3.2 | 14.5 | 0.00 | 0.00 | 0.00 | 82 | 1005.3 |
| 20260507041004 | 15 | 179 | 3.2 | 12.9 | 0.00 | 0.00 | 0.00 | 82 | 1005.3 |
| 20260507040004 | 15 | 193 | 3.2 | 11.3 | 0.00 | 0.00 | 0.00 | 82 | 1006.0 |
| 20260507035004 | 15 | 177 | 3.2 | 6.4 | 0.00 | 0.00 | 0.00 | 82 | 1006.0 |
| 20260507034004 | 15 | 178 | 4.8 | 11.3 | 0.00 | 0.00 | 0.00 | 82 | 1006.3 |
| 20260507033003 | 14 | 161 | 3.2 | 9.7 | 0.00 | 0.00 | 0.00 | 84 | 1006.6 |
| 20260507032003 | 13 | 191 | 1.6 | 9.7 | 0.00 | 0.00 | 0.00 | 86 | 1006.3 |
| 20260507031003 | 14 | 174 | 1.6 | 9.7 | 0.00 | 0.00 | 0.00 | 85 | 1006.6 |
| 20260507030004 | 14 | 167 | 1.6 | 4.8 | 0.00 | 0.00 | 0.00 | 85 | 1006.6 |
| 20260507025004 | 15 | 159 | 3.2 | 6.4 | 0.00 | 0.00 | 0.00 | 81 | 1007.0 |
| 20260507024004 | 15 | 183 | 3.2 | 12.9 | 0.00 | 0.00 | 0.00 | 79 | 1007.3 |
| 20260507023004 | 15 | 174 | 3.2 | 11.3 | 0.00 | 0.00 | 0.00 | 78 | 1007.3 |
| 20260507022003 | 15 | 178 | 4.8 | 14.5 | 0.00 | 0.00 | 0.00 | 76 | 1007.0 |
| 20260507021004 | 15 | 176 | 3.2 | 12.9 | 0.00 | 0.00 | 0.00 | 78 | 1007.7 |
| 20260507020004 | 15 | 173 | 4.8 | 17.7 | 0.00 | 0.00 | 0.00 | 80 | 1007.7 |
| 20260507015004 | 15 | 179 | 6.4 | 16.1 | 0.00 | 0.00 | 0.00 | 81 | 1008.0 |
| 20260507014003 | 16 | 173 | 3.2 | 11.3 | 0.00 | 0.00 | 0.00 | 79 | 1008.7 |
| 20260507013004 | 16 | 170 | 4.8 | 17.7 | 0.00 | 0.00 | 0.00 | 79 | 1008.7 |
| 20260507012003 | 16 | 183 | 4.8 | 16.1 | 0.00 | 0.00 | 0.00 | 78 | 1008.7 |
| 20260507011003 | 16 | 190 | 3.2 | 12.9 | 0.00 | 0.00 | 0.00 | 80 | 1009.0 |
| 20260507010004 | 16 | 175 | 4.8 | 12.9 | 0.00 | 0.00 | 0.00 | 81 | 1009.0 |
| 20260507005004 | 16 | 182 | 4.8 | 12.9 | 0.00 | 0.00 | 0.00 | 80 | 1009.0 |
| 20260507004003 | 16 | 194 | 4.8 | 22.5 | 0.00 | 0.00 | 0.00 | 75 | 1009.0 |
| 20260507003003 | 16 | 194 | 4.8 | 16.1 | 0.00 | 0.00 | 0.00 | 75 | 1009.4 |
| 20260507002004 | 16 | 169 | 4.8 | 12.9 | 0.00 | 0.00 | 0.00 | 75 | 1009.0 |
| 20260507001003 | 17 | 192 | 4.8 | 17.7 | 0.00 | 0.00 | 0.00 | 74 | 1009.0 |
| 20260507000004 | 17 | 179 | 4.8 | 20.9 | 0.00 | 0.00 | 0.00 | 73 | 1009.0 |
| 20260506235003 | 17 | 174 | 6.4 | 20.9 | 0.00 | 0.00 | 0.00 | 72 | 1009.0 |
| 20260506234003 | 17 | 174 | 4.8 | 20.9 | 0.00 | 0.00 | 0.00 | 72 | 1009.0 |
| 20260506233003 | 17 | 184 | 6.4 | 16.1 | 0.00 | 0.00 | 0.00 | 71 | 1009.0 |
| 20260506232003 | 17 | 181 | 4.8 | 14.5 | 0.00 | 0.00 | 0.00 | 70 | 1009.0 |
| 20260506231003 | 17 | 179 | 6.4 | 27.4 | 0.00 | 0.00 | 0.00 | 70 | 1008.7 |
| 20260506230004 | 17 | 167 | 4.8 | 20.9 | 0.00 | 0.00 | 0.00 | 70 | 1008.7 |
| 20260506225004 | 17 | 180 | 6.4 | 20.9 | 0.00 | 0.00 | 0.00 | 69 | 1008.7 |
| 20260506224004 | 18 | 184 | 6.4 | 24.1 | 0.00 | 0.00 | 0.00 | 69 | 1008.7 |
| 20260506223004 | 18 | 175 | 8.0 | 22.5 | 0.00 | 0.00 | 0.00 | 68 | 1008.7 |
| 20260506222003 | 18 | 180 | 6.4 | 16.1 | 0.00 | 0.00 | 0.00 | 68 | 1008.7 |
| 20260506221003 | 18 | 194 | 6.4 | 22.5 | 0.00 | 0.00 | 0.00 | 68 | 1008.7 |
| 20260506220004 | 18 | 189 | 6.4 | 20.9 | 0.00 | 0.00 | 0.00 | 68 | 1008.7 |
| 20260506215004 | 18 | 188 | 6.4 | 17.7 | 0.00 | 0.00 | 0.00 | 68 | 1009.0 |
| 20260506214003 | 18 | 191 | 6.4 | 22.5 | 0.00 | 0.00 | 0.00 | 67 | 1009.0 |
| 20260506213004 | 18 | 185 | 6.4 | 25.7 | 0.00 | 0.00 | 0.00 | 67 | 1009.0 |
| 20260506212003 | 18 | 186 | 6.4 | 17.7 | 0.00 | 0.00 | 0.00 | 67 | 1009.0 |
| 20260506211003 | 18 | 186 | 6.4 | 16.1 | 0.00 | 0.00 | 0.00 | 67 | 1009.0 |
| 20260506210003 | 18 | 175 | 6.4 | 17.7 | 0.00 | 0.00 | 0.00 | 66 | 1008.7 |
| 20260506205004 | 18 | 193 | 8.0 | 22.5 | 0.00 | 0.00 | 0.00 | 66 | 1008.7 |
| 20260506204003 | 18 | 180 | 9.7 | 24.1 | 0.00 | 0.00 | 0.00 | 66 | 1009.0 |
| 20260506203004 | 19 | 190 | 8.0 | 22.5 | 0.00 | 0.00 | 0.00 | 66 | 1008.7 |
| 20260506202004 | 19 | 182 | 8.0 | 30.6 | 0.00 | 0.00 | 0.00 | 65 | 1008.7 |
| 20260506201003 | 19 | 184 | 8.0 | 20.9 | 0.00 | 0.00 | 0.00 | 66 | 1008.4 |
| 20260506200004 | 19 | 189 | 8.0 | 29.0 | 0.00 | 0.00 | 0.00 | 67 | 1008.4 |
| 20260506195003 | 19 | 180 | 8.0 | 24.1 | 0.00 | 0.00 | 0.00 | 66 | 1008.7 |
| 20260506194003 | 19 | 186 | 8.0 | 27.4 | 0.00 | 0.00 | 0.00 | 67 | 1008.4 |
| 20260506193004 | 19 | 173 | 9.7 | 27.4 | 0.00 | 0.00 | 0.00 | 66 | 1008.0 |
| 20260506192003 | 20 | 181 | 9.7 | 25.7 | 0.00 | 0.00 | 0.00 | 66 | 1008.4 |
| 20260506191003 | 19 | 172 | 8.0 | 16.1 | 0.00 | 0.00 | 0.00 | 66 | 1008.7 |
| 20260506190004 | 19 | 172 | 6.4 | 24.1 | 0.00 | 0.00 | 0.00 | 67 | 1008.7 |
| 20260506185003 | 19 | 204 | 8.0 | 24.1 | 0.00 | 0.00 | 0.00 | 68 | 1008.7 |
| 20260506184004 | 19 | 179 | 9.7 | 27.4 | 0.00 | 0.00 | 0.00 | 68 | 1009.4 |
| 20260506183004 | 20 | 173 | 9.7 | 24.1 | 0.00 | 0.00 | 0.00 | 67 | 1009.4 |
| 20260506182003 | 18 | 187 | 8.0 | 24.1 | 0.00 | 0.00 | 0.00 | 70 | 1009.4 |
| 20260506181003 | 18 | 195 | 6.4 | 20.9 | 0.00 | 0.00 | 0.00 | 71 | 1009.4 |
| 20260506180004 | 18 | 182 | 8.0 | 20.9 | 0.00 | 0.00 | 0.00 | 71 | 1009.7 |
| 20260506175004 | 18 | 180 | 6.4 | 27.4 | 0.00 | 0.00 | 0.00 | 70 | 1009.7 |